sensor_id;sensor_type;location;lat;lon;timestamp;P1;durP1;ratioP1;P2;durP2;ratioP2
16820;SDS011;8527;49.740;6.604;2024-02-21T00:00:41;9.88;;;3.45;;
16820;SDS011;8527;49.740;6.604;2024-02-21T00:05:40;11.07;;;4.15;;
16820;SDS011;8527;49.740;6.604;2024-02-21T00:10:38;14.50;;;5.05;;
16820;SDS011;8527;49.740;6.604;2024-02-21T00:15:36;8.77;;;4.10;;
16820;SDS011;8527;49.740;6.604;2024-02-21T00:20:38;16.23;;;4.60;;
16820;SDS011;8527;49.740;6.604;2024-02-21T00:25:36;11.88;;;4.60;;
16820;SDS011;8527;49.740;6.604;2024-02-21T00:30:35;13.18;;;4.28;;
16820;SDS011;8527;49.740;6.604;2024-02-21T00:35:34;13.95;;;5.13;;
16820;SDS011;8527;49.740;6.604;2024-02-21T00:40:36;14.80;;;4.68;;
16820;SDS011;8527;49.740;6.604;2024-02-21T00:45:34;13.55;;;4.22;;
16820;SDS011;8527;49.740;6.604;2024-02-21T00:50:33;10.90;;;4.63;;
16820;SDS011;8527;49.740;6.604;2024-02-21T00:55:32;11.55;;;4.60;;
16820;SDS011;8527;49.740;6.604;2024-02-21T01:00:33;11.25;;;4.50;;
16820;SDS011;8527;49.740;6.604;2024-02-21T01:05:32;15.55;;;4.53;;
16820;SDS011;8527;49.740;6.604;2024-02-21T01:10:31;16.63;;;5.22;;
16820;SDS011;8527;49.740;6.604;2024-02-21T01:15:29;15.25;;;5.00;;
16820;SDS011;8527;49.740;6.604;2024-02-21T01:20:31;13.52;;;5.15;;
16820;SDS011;8527;49.740;6.604;2024-02-21T01:25:31;19.25;;;5.22;;
16820;SDS011;8527;49.740;6.604;2024-02-21T01:30:37;13.30;;;5.07;;
16820;SDS011;8527;49.740;6.604;2024-02-21T01:35:39;12.07;;;5.03;;
16820;SDS011;8527;49.740;6.604;2024-02-21T01:40:37;14.00;;;4.57;;
16820;SDS011;8527;49.740;6.604;2024-02-21T01:45:35;13.18;;;4.90;;
16820;SDS011;8527;49.740;6.604;2024-02-21T01:50:39;12.48;;;5.53;;
16820;SDS011;8527;49.740;6.604;2024-02-21T01:55:38;13.85;;;5.15;;
16820;SDS011;8527;49.740;6.604;2024-02-21T02:00:36;13.48;;;4.80;;
16820;SDS011;8527;49.740;6.604;2024-02-21T02:05:39;13.32;;;4.47;;
16820;SDS011;8527;49.740;6.604;2024-02-21T02:10:40;14.32;;;4.88;;
16820;SDS011;8527;49.740;6.604;2024-02-21T02:15:39;15.35;;;5.20;;
16820;SDS011;8527;49.740;6.604;2024-02-21T02:20:41;13.25;;;5.22;;
16820;SDS011;8527;49.740;6.604;2024-02-21T02:25:42;18.95;;;5.05;;
16820;SDS011;8527;49.740;6.604;2024-02-21T02:30:44;14.65;;;5.15;;
16820;SDS011;8527;49.740;6.604;2024-02-21T02:35:42;10.73;;;3.88;;
16820;SDS011;8527;49.740;6.604;2024-02-21T02:40:44;14.27;;;4.63;;
16820;SDS011;8527;49.740;6.604;2024-02-21T02:45:42;9.88;;;4.60;;
16820;SDS011;8527;49.740;6.604;2024-02-21T02:50:44;13.57;;;4.57;;
16820;SDS011;8527;49.740;6.604;2024-02-21T02:55:45;15.85;;;4.78;;
16820;SDS011;8527;49.740;6.604;2024-02-21T03:00:43;13.43;;;4.70;;
16820;SDS011;8527;49.740;6.604;2024-02-21T03:05:42;11.52;;;4.28;;
16820;SDS011;8527;49.740;6.604;2024-02-21T03:10:40;11.63;;;4.53;;
16820;SDS011;8527;49.740;6.604;2024-02-21T03:15:44;11.50;;;4.53;;
16820;SDS011;8527;49.740;6.604;2024-02-21T03:20:43;12.70;;;4.35;;
16820;SDS011;8527;49.740;6.604;2024-02-21T03:25:48;13.20;;;4.60;;
16820;SDS011;8527;49.740;6.604;2024-02-21T03:30:59;10.20;;;4.38;;
16820;SDS011;8527;49.740;6.604;2024-02-21T03:36:02;15.73;;;5.07;;
16820;SDS011;8527;49.740;6.604;2024-02-21T03:41:00;14.60;;;4.18;;
16820;SDS011;8527;49.740;6.604;2024-02-21T03:46:01;12.27;;;4.07;;
16820;SDS011;8527;49.740;6.604;2024-02-21T03:51:00;13.10;;;4.20;;
16820;SDS011;8527;49.740;6.604;2024-02-21T03:56:02;12.88;;;3.97;;
16820;SDS011;8527;49.740;6.604;2024-02-21T04:01:05;14.25;;;4.70;;
16820;SDS011;8527;49.740;6.604;2024-02-21T04:06:04;10.05;;;4.10;;
16820;SDS011;8527;49.740;6.604;2024-02-21T04:11:03;15.57;;;4.95;;
16820;SDS011;8527;49.740;6.604;2024-02-21T04:16:01;14.15;;;4.18;;
16820;SDS011;8527;49.740;6.604;2024-02-21T04:21:08;8.32;;;3.53;;
16820;SDS011;8527;49.740;6.604;2024-02-21T04:26:07;14.23;;;4.43;;
16820;SDS011;8527;49.740;6.604;2024-02-21T04:31:08;9.40;;;4.35;;
16820;SDS011;8527;49.740;6.604;2024-02-21T04:36:06;12.20;;;3.95;;
16820;SDS011;8527;49.740;6.604;2024-02-21T04:41:05;13.25;;;4.45;;
16820;SDS011;8527;49.740;6.604;2024-02-21T04:46:04;15.48;;;4.35;;
16820;SDS011;8527;49.740;6.604;2024-02-21T04:51:05;13.75;;;4.53;;
16820;SDS011;8527;49.740;6.604;2024-02-21T04:56:04;13.32;;;4.38;;
16820;SDS011;8527;49.740;6.604;2024-02-21T05:01:03;11.10;;;3.90;;
16820;SDS011;8527;49.740;6.604;2024-02-21T05:06:04;16.95;;;4.75;;
16820;SDS011;8527;49.740;6.604;2024-02-21T05:11:03;15.07;;;4.13;;
16820;SDS011;8527;49.740;6.604;2024-02-21T05:16:09;8.13;;;3.50;;
16820;SDS011;8527;49.740;6.604;2024-02-21T05:21:13;17.30;;;3.92;;
16820;SDS011;8527;49.740;6.604;2024-02-21T05:26:12;10.85;;;4.13;;
16820;SDS011;8527;49.740;6.604;2024-02-21T05:31:20;18.70;;;4.35;;
16820;SDS011;8527;49.740;6.604;2024-02-21T05:36:22;9.43;;;4.22;;
16820;SDS011;8527;49.740;6.604;2024-02-21T05:41:23;14.55;;;4.00;;
16820;SDS011;8527;49.740;6.604;2024-02-21T05:46:24;10.45;;;4.15;;
16820;SDS011;8527;49.740;6.604;2024-02-21T05:51:25;11.77;;;4.00;;
16820;SDS011;8527;49.740;6.604;2024-02-21T05:56:24;17.33;;;5.03;;
16820;SDS011;8527;49.740;6.604;2024-02-21T06:01:25;12.13;;;4.15;;
16820;SDS011;8527;49.740;6.604;2024-02-21T06:06:26;10.27;;;4.18;;
16820;SDS011;8527;49.740;6.604;2024-02-21T06:11:24;11.70;;;4.10;;
16820;SDS011;8527;49.740;6.604;2024-02-21T06:16:23;12.43;;;3.92;;
16820;SDS011;8527;49.740;6.604;2024-02-21T06:21:22;13.38;;;3.97;;
16820;SDS011;8527;49.740;6.604;2024-02-21T06:26:23;13.43;;;3.83;;
16820;SDS011;8527;49.740;6.604;2024-02-21T06:31:24;10.80;;;4.38;;
16820;SDS011;8527;49.740;6.604;2024-02-21T06:36:24;15.15;;;4.70;;
16820;SDS011;8527;49.740;6.604;2024-02-21T06:41:31;18.40;;;4.30;;
16820;SDS011;8527;49.740;6.604;2024-02-21T06:46:29;16.35;;;4.35;;
16820;SDS011;8527;49.740;6.604;2024-02-21T06:51:28;14.50;;;3.97;;
16820;SDS011;8527;49.740;6.604;2024-02-21T06:56:32;16.42;;;4.40;;
16820;SDS011;8527;49.740;6.604;2024-02-21T07:01:34;13.57;;;4.88;;
16820;SDS011;8527;49.740;6.604;2024-02-21T07:06:32;10.00;;;3.83;;
16820;SDS011;8527;49.740;6.604;2024-02-21T07:11:33;10.98;;;4.05;;
16820;SDS011;8527;49.740;6.604;2024-02-21T07:16:32;16.92;;;3.88;;
16820;SDS011;8527;49.740;6.604;2024-02-21T07:21:30;13.63;;;3.92;;
16820;SDS011;8527;49.740;6.604;2024-02-21T07:26:29;14.75;;;4.07;;
16820;SDS011;8527;49.740;6.604;2024-02-21T07:31:30;12.18;;;3.88;;
16820;SDS011;8527;49.740;6.604;2024-02-21T07:36:29;14.68;;;4.13;;
16820;SDS011;8527;49.740;6.604;2024-02-21T07:41:28;9.75;;;3.30;;
16820;SDS011;8527;49.740;6.604;2024-02-21T07:46:26;12.18;;;4.53;;
16820;SDS011;8527;49.740;6.604;2024-02-21T07:51:29;13.65;;;3.72;;
16820;SDS011;8527;49.740;6.604;2024-02-21T07:56:33;12.02;;;4.28;;
16820;SDS011;8527;49.740;6.604;2024-02-21T08:01:32;12.40;;;3.70;;
16820;SDS011;8527;49.740;6.604;2024-02-21T08:06:35;12.25;;;4.35;;
16820;SDS011;8527;49.740;6.604;2024-02-21T08:11:34;14.38;;;3.85;;
16820;SDS011;8527;49.740;6.604;2024-02-21T08:16:33;9.13;;;3.78;;
16820;SDS011;8527;49.740;6.604;2024-02-21T08:21:37;8.40;;;3.45;;
16820;SDS011;8527;49.740;6.604;2024-02-21T08:26:39;13.90;;;4.10;;
16820;SDS011;8527;49.740;6.604;2024-02-21T08:31:39;12.05;;;3.33;;
16820;SDS011;8527;49.740;6.604;2024-02-21T08:36:40;16.88;;;3.78;;
16820;SDS011;8527;49.740;6.604;2024-02-21T08:41:39;12.82;;;3.63;;
16820;SDS011;8527;49.740;6.604;2024-02-21T08:46:37;12.40;;;3.60;;
16820;SDS011;8527;49.740;6.604;2024-02-21T08:51:36;16.20;;;3.28;;
16820;SDS011;8527;49.740;6.604;2024-02-21T08:56:37;10.95;;;3.60;;
16820;SDS011;8527;49.740;6.604;2024-02-21T09:01:35;11.38;;;3.40;;
16820;SDS011;8527;49.740;6.604;2024-02-21T09:06:34;10.75;;;3.38;;
16820;SDS011;8527;49.740;6.604;2024-02-21T09:11:39;10.88;;;3.63;;
16820;SDS011;8527;49.740;6.604;2024-02-21T09:16:37;12.48;;;3.55;;
16820;SDS011;8527;49.740;6.604;2024-02-21T09:21:39;12.85;;;3.60;;
16820;SDS011;8527;49.740;6.604;2024-02-21T09:26:40;14.27;;;3.70;;
16820;SDS011;8527;49.740;6.604;2024-02-21T09:31:38;7.90;;;2.85;;
16820;SDS011;8527;49.740;6.604;2024-02-21T09:36:40;10.55;;;2.75;;
16820;SDS011;8527;49.740;6.604;2024-02-21T09:41:44;15.70;;;3.70;;
16820;SDS011;8527;49.740;6.604;2024-02-21T09:46:52;10.27;;;3.67;;
16820;SDS011;8527;49.740;6.604;2024-02-21T09:52:01;11.88;;;3.30;;
16820;SDS011;8527;49.740;6.604;2024-02-21T09:57:03;7.18;;;2.83;;
16820;SDS011;8527;49.740;6.604;2024-02-21T10:02:03;8.68;;;2.67;;
16820;SDS011;8527;49.740;6.604;2024-02-21T10:07:01;12.18;;;3.63;;
16820;SDS011;8527;49.740;6.604;2024-02-21T10:12:10;12.45;;;3.47;;
16820;SDS011;8527;49.740;6.604;2024-02-21T10:17:17;16.08;;;3.70;;
16820;SDS011;8527;49.740;6.604;2024-02-21T10:22:17;8.32;;;3.22;;
16820;SDS011;8527;49.740;6.604;2024-02-21T10:27:18;15.88;;;3.58;;
16820;SDS011;8527;49.740;6.604;2024-02-21T10:32:19;10.27;;;3.00;;
16820;SDS011;8527;49.740;6.604;2024-02-21T10:37:18;14.00;;;3.45;;
16820;SDS011;8527;49.740;6.604;2024-02-21T10:42:25;10.48;;;3.17;;
16820;SDS011;8527;49.740;6.604;2024-02-21T10:47:29;13.18;;;3.00;;
16820;SDS011;8527;49.740;6.604;2024-02-21T10:52:36;12.68;;;3.05;;
16820;SDS011;8527;49.740;6.604;2024-02-21T10:57:48;14.13;;;3.33;;
16820;SDS011;8527;49.740;6.604;2024-02-21T11:02:51;15.52;;;3.15;;
16820;SDS011;8527;49.740;6.604;2024-02-21T11:07:53;18.58;;;3.05;;
16820;SDS011;8527;49.740;6.604;2024-02-21T11:13:04;9.98;;;3.25;;
16820;SDS011;8527;49.740;6.604;2024-02-21T11:18:03;12.50;;;3.40;;
16820;SDS011;8527;49.740;6.604;2024-02-21T11:23:02;7.57;;;2.50;;
16820;SDS011;8527;49.740;6.604;2024-02-21T11:28:04;10.10;;;2.75;;
16820;SDS011;8527;49.740;6.604;2024-02-21T11:33:05;9.32;;;2.72;;
16820;SDS011;8527;49.740;6.604;2024-02-21T11:38:12;10.63;;;3.40;;
16820;SDS011;8527;49.740;6.604;2024-02-21T11:43:15;10.25;;;3.08;;
16820;SDS011;8527;49.740;6.604;2024-02-21T11:48:14;11.00;;;3.25;;
16820;SDS011;8527;49.740;6.604;2024-02-21T11:53:15;7.68;;;3.00;;
16820;SDS011;8527;49.740;6.604;2024-02-21T11:58:17;10.27;;;3.88;;
16820;SDS011;8527;49.740;6.604;2024-02-21T12:03:18;9.65;;;3.30;;
16820;SDS011;8527;49.740;6.604;2024-02-21T12:08:19;9.10;;;2.85;;
16820;SDS011;8527;49.740;6.604;2024-02-21T12:13:20;11.15;;;3.00;;
16820;SDS011;8527;49.740;6.604;2024-02-21T12:18:23;10.77;;;2.80;;
16820;SDS011;8527;49.740;6.604;2024-02-21T12:23:22;10.38;;;2.72;;
16820;SDS011;8527;49.740;6.604;2024-02-21T12:28:23;5.80;;;2.97;;
16820;SDS011;8527;49.740;6.604;2024-02-21T12:33:22;11.70;;;2.72;;
16820;SDS011;8527;49.740;6.604;2024-02-21T12:38:20;12.05;;;3.33;;
16820;SDS011;8527;49.740;6.604;2024-02-21T12:43:18;9.65;;;2.80;;
16820;SDS011;8527;49.740;6.604;2024-02-21T12:48:20;8.30;;;2.92;;
16820;SDS011;8527;49.740;6.604;2024-02-21T12:53:19;7.65;;;2.80;;
16820;SDS011;8527;49.740;6.604;2024-02-21T12:58:19;13.32;;;3.40;;
16820;SDS011;8527;49.740;6.604;2024-02-21T13:03:21;9.07;;;3.15;;
16820;SDS011;8527;49.740;6.604;2024-02-21T13:13:23;8.38;;;2.85;;
16820;SDS011;8527;49.740;6.604;2024-02-21T13:18:31;15.48;;;4.00;;
16820;SDS011;8527;49.740;6.604;2024-02-21T13:28:27;14.55;;;3.17;;
16820;SDS011;8527;49.740;6.604;2024-02-21T13:33:26;9.95;;;3.20;;
16820;SDS011;8527;49.740;6.604;2024-02-21T13:38:27;8.57;;;2.95;;
16820;SDS011;8527;49.740;6.604;2024-02-21T13:43:26;8.45;;;2.90;;
16820;SDS011;8527;49.740;6.604;2024-02-21T13:48:26;8.88;;;3.55;;
16820;SDS011;8527;49.740;6.604;2024-02-21T13:53:27;8.85;;;2.92;;
16820;SDS011;8527;49.740;6.604;2024-02-21T13:58:26;8.70;;;2.85;;
16820;SDS011;8527;49.740;6.604;2024-02-21T14:03:24;10.73;;;2.95;;
16820;SDS011;8527;49.740;6.604;2024-02-21T14:08:23;11.98;;;3.58;;
16820;SDS011;8527;49.740;6.604;2024-02-21T14:13:24;12.07;;;3.30;;
16820;SDS011;8527;49.740;6.604;2024-02-21T14:18:28;9.27;;;2.95;;
16820;SDS011;8527;49.740;6.604;2024-02-21T14:23:27;9.48;;;3.28;;
16820;SDS011;8527;49.740;6.604;2024-02-21T14:28:28;17.52;;;3.88;;
16820;SDS011;8527;49.740;6.604;2024-02-21T14:33:28;12.10;;;3.55;;
16820;SDS011;8527;49.740;6.604;2024-02-21T14:38:30;8.95;;;3.20;;
16820;SDS011;8527;49.740;6.604;2024-02-21T14:43:35;5.82;;;2.80;;
16820;SDS011;8527;49.740;6.604;2024-02-21T14:48:33;10.38;;;3.83;;
16820;SDS011;8527;49.740;6.604;2024-02-21T14:53:32;7.68;;;3.30;;
16820;SDS011;8527;49.740;6.604;2024-02-21T14:58:30;8.18;;;3.55;;
16820;SDS011;8527;49.740;6.604;2024-02-21T15:03:31;11.02;;;3.63;;
16820;SDS011;8527;49.740;6.604;2024-02-21T15:08:33;6.95;;;3.30;;
16820;SDS011;8527;49.740;6.604;2024-02-21T15:13:31;9.80;;;4.22;;
16820;SDS011;8527;49.740;6.604;2024-02-21T15:18:32;11.45;;;3.97;;
16820;SDS011;8527;49.740;6.604;2024-02-21T15:23:33;7.68;;;3.53;;
16820;SDS011;8527;49.740;6.604;2024-02-21T15:28:31;7.85;;;3.92;;
16820;SDS011;8527;49.740;6.604;2024-02-21T15:33:32;12.68;;;3.58;;
16820;SDS011;8527;49.740;6.604;2024-02-21T15:38:33;6.78;;;3.28;;
16820;SDS011;8527;49.740;6.604;2024-02-21T15:43:31;8.23;;;3.80;;
16820;SDS011;8527;49.740;6.604;2024-02-21T15:48:32;9.25;;;4.03;;
16820;SDS011;8527;49.740;6.604;2024-02-21T15:53:31;9.35;;;4.00;;
16820;SDS011;8527;49.740;6.604;2024-02-21T15:58:30;10.93;;;3.90;;
16820;SDS011;8527;49.740;6.604;2024-02-21T16:03:37;12.15;;;3.97;;
16820;SDS011;8527;49.740;6.604;2024-02-21T16:08:38;11.05;;;3.90;;
16820;SDS011;8527;49.740;6.604;2024-02-21T16:13:36;8.00;;;3.42;;
16820;SDS011;8527;49.740;6.604;2024-02-21T16:18:40;11.65;;;3.60;;
16820;SDS011;8527;49.740;6.604;2024-02-21T16:23:41;9.68;;;3.78;;
16820;SDS011;8527;49.740;6.604;2024-02-21T16:28:40;8.45;;;3.65;;
16820;SDS011;8527;49.740;6.604;2024-02-21T16:33:41;12.38;;;4.05;;
16820;SDS011;8527;49.740;6.604;2024-02-21T16:38:40;6.63;;;3.63;;
16820;SDS011;8527;49.740;6.604;2024-02-21T16:43:38;9.80;;;3.72;;
16820;SDS011;8527;49.740;6.604;2024-02-21T16:48:36;8.02;;;3.50;;
16820;SDS011;8527;49.740;6.604;2024-02-21T16:53:38;6.38;;;3.33;;
16820;SDS011;8527;49.740;6.604;2024-02-21T16:58:39;7.55;;;3.25;;
16820;SDS011;8527;49.740;6.604;2024-02-21T17:03:37;7.57;;;3.40;;
16820;SDS011;8527;49.740;6.604;2024-02-21T17:08:41;6.43;;;3.17;;
16820;SDS011;8527;49.740;6.604;2024-02-21T17:13:40;8.85;;;3.75;;
16820;SDS011;8527;49.740;6.604;2024-02-21T17:18:39;6.45;;;3.65;;
16820;SDS011;8527;49.740;6.604;2024-02-21T17:23:37;10.30;;;3.95;;
16820;SDS011;8527;49.740;6.604;2024-02-21T17:28:38;10.35;;;3.47;;
16820;SDS011;8527;49.740;6.604;2024-02-21T17:33:37;8.00;;;3.72;;
16820;SDS011;8527;49.740;6.604;2024-02-21T17:38:37;6.18;;;3.20;;
16820;SDS011;8527;49.740;6.604;2024-02-21T17:43:42;9.00;;;3.70;;
16820;SDS011;8527;49.740;6.604;2024-02-21T18:03:13;9.40;;;3.80;;
16820;SDS011;8527;49.740;6.604;2024-02-21T18:08:14;5.38;;;3.47;;
16820;SDS011;8527;49.740;6.604;2024-02-21T18:13:13;6.13;;;3.17;;
16820;SDS011;8527;49.740;6.604;2024-02-21T18:18:15;5.82;;;3.20;;
16820;SDS011;8527;49.740;6.604;2024-02-21T18:23:16;7.95;;;3.17;;
16820;SDS011;8527;49.740;6.604;2024-02-21T18:28:14;6.75;;;3.22;;
16820;SDS011;8527;49.740;6.604;2024-02-21T18:33:15;6.43;;;3.22;;
16820;SDS011;8527;49.740;6.604;2024-02-21T18:38:14;8.57;;;4.13;;
16820;SDS011;8527;49.740;6.604;2024-02-21T18:43:13;12.20;;;4.45;;
16820;SDS011;8527;49.740;6.604;2024-02-21T18:48:11;11.10;;;3.80;;
16820;SDS011;8527;49.740;6.604;2024-02-21T18:53:12;6.57;;;3.45;;
16820;SDS011;8527;49.740;6.604;2024-02-21T18:58:13;8.15;;;3.38;;
16820;SDS011;8527;49.740;6.604;2024-02-21T19:03:12;7.82;;;3.30;;
16820;SDS011;8527;49.740;6.604;2024-02-21T19:08:13;8.38;;;3.92;;
16820;SDS011;8527;49.740;6.604;2024-02-21T19:13:18;5.97;;;3.78;;
16820;SDS011;8527;49.740;6.604;2024-02-21T19:18:18;7.10;;;3.78;;
16820;SDS011;8527;49.740;6.604;2024-02-21T19:23:23;8.65;;;3.97;;
16820;SDS011;8527;49.740;6.604;2024-02-21T19:28:50;6.35;;;3.33;;
16820;SDS011;8527;49.740;6.604;2024-02-21T19:34:01;6.93;;;4.07;;
16820;SDS011;8527;49.740;6.604;2024-02-21T19:39:14;8.50;;;4.10;;
16820;SDS011;8527;49.740;6.604;2024-02-21T19:44:16;10.63;;;4.18;;
16820;SDS011;8527;49.740;6.604;2024-02-21T19:49:18;6.43;;;4.13;;
16820;SDS011;8527;49.740;6.604;2024-02-21T19:54:23;7.32;;;4.05;;
16820;SDS011;8527;49.740;6.604;2024-02-21T19:59:28;8.98;;;4.63;;
16820;SDS011;8527;49.740;6.604;2024-02-21T20:04:28;7.57;;;4.28;;
16820;SDS011;8527;49.740;6.604;2024-02-21T20:09:29;9.60;;;4.10;;
16820;SDS011;8527;49.740;6.604;2024-02-21T20:14:28;6.90;;;3.92;;
16820;SDS011;8527;49.740;6.604;2024-02-21T20:19:27;6.07;;;3.50;;
16820;SDS011;8527;49.740;6.604;2024-02-21T20:24:26;5.35;;;3.30;;
16820;SDS011;8527;49.740;6.604;2024-02-21T20:29:33;6.28;;;3.72;;
16820;SDS011;8527;49.740;6.604;2024-02-21T20:34:34;6.97;;;3.35;;
16820;SDS011;8527;49.740;6.604;2024-02-21T20:39:40;8.70;;;3.65;;
16820;SDS011;8527;49.740;6.604;2024-02-21T20:44:42;6.53;;;3.80;;
16820;SDS011;8527;49.740;6.604;2024-02-21T20:49:41;5.55;;;3.50;;
16820;SDS011;8527;49.740;6.604;2024-02-21T20:54:43;7.65;;;3.38;;
16820;SDS011;8527;49.740;6.604;2024-02-21T20:59:52;6.15;;;3.38;;
16820;SDS011;8527;49.740;6.604;2024-02-21T21:04:52;5.90;;;3.70;;
16820;SDS011;8527;49.740;6.604;2024-02-21T21:09:57;8.93;;;3.53;;
16820;SDS011;8527;49.740;6.604;2024-02-21T21:14:59;5.70;;;3.00;;
16820;SDS011;8527;49.740;6.604;2024-02-21T21:20:18;6.97;;;3.03;;
16820;SDS011;8527;49.740;6.604;2024-02-21T21:25:29;4.32;;;2.90;;
16820;SDS011;8527;49.740;6.604;2024-02-21T21:30:34;4.03;;;3.00;;
16820;SDS011;8527;49.740;6.604;2024-02-21T21:35:35;3.17;;;2.70;;
16820;SDS011;8527;49.740;6.604;2024-02-21T21:40:47;4.57;;;2.80;;
16820;SDS011;8527;49.740;6.604;2024-02-21T21:45:49;3.10;;;2.80;;
16820;SDS011;8527;49.740;6.604;2024-02-21T21:50:47;4.72;;;2.50;;
16820;SDS011;8527;49.740;6.604;2024-02-21T21:55:48;3.15;;;2.30;;
16820;SDS011;8527;49.740;6.604;2024-02-21T22:00:47;3.58;;;2.53;;
16820;SDS011;8527;49.740;6.604;2024-02-21T22:05:46;3.72;;;2.55;;
16820;SDS011;8527;49.740;6.604;2024-02-21T22:10:44;2.72;;;2.40;;
16820;SDS011;8527;49.740;6.604;2024-02-21T22:15:45;2.72;;;2.05;;
16820;SDS011;8527;49.740;6.604;2024-02-21T22:20:44;2.30;;;1.75;;
16820;SDS011;8527;49.740;6.604;2024-02-21T22:25:42;2.35;;;1.80;;
16820;SDS011;8527;49.740;6.604;2024-02-21T22:30:41;2.28;;;2.10;;
16820;SDS011;8527;49.740;6.604;2024-02-21T22:35:43;2.20;;;2.00;;
16820;SDS011;8527;49.740;6.604;2024-02-21T22:40:44;2.03;;;1.80;;
16820;SDS011;8527;49.740;6.604;2024-02-21T22:45:43;3.65;;;1.73;;
16820;SDS011;8527;49.740;6.604;2024-02-21T22:50:45;2.80;;;1.75;;
16820;SDS011;8527;49.740;6.604;2024-02-21T22:55:46;2.28;;;2.08;;
16820;SDS011;8527;49.740;6.604;2024-02-21T23:00:45;2.88;;;1.75;;
16820;SDS011;8527;49.740;6.604;2024-02-21T23:05:49;1.65;;;1.55;;
16820;SDS011;8527;49.740;6.604;2024-02-21T23:10:54;1.70;;;1.60;;
16820;SDS011;8527;49.740;6.604;2024-02-21T23:15:58;2.65;;;1.92;;
16820;SDS011;8527;49.740;6.604;2024-02-21T23:21:02;2.13;;;1.90;;
16820;SDS011;8527;49.740;6.604;2024-02-21T23:26:05;1.48;;;1.38;;
16820;SDS011;8527;49.740;6.604;2024-02-21T23:31:05;2.33;;;1.60;;
16820;SDS011;8527;49.740;6.604;2024-02-21T23:36:07;1.92;;;1.77;;
16820;SDS011;8527;49.740;6.604;2024-02-21T23:41:09;3.05;;;1.88;;
16820;SDS011;8527;49.740;6.604;2024-02-21T23:46:11;2.88;;;1.80;;
16820;SDS011;8527;49.740;6.604;2024-02-21T23:51:14;1.30;;;1.20;;
16820;SDS011;8527;49.740;6.604;2024-02-21T23:56:19;2.13;;;1.40;;
